createdAt,value
2023-01-28T00:00:17.458Z,17.40
2023-01-28T00:01:17.409Z,18.50
2023-01-28T00:02:17.439Z,17.50
2023-01-28T00:03:17.368Z,18.20
2023-01-28T00:04:17.369Z,17.90
2023-01-28T00:05:17.342Z,17.60
2023-01-28T00:06:17.347Z,17.30
2023-01-28T00:07:17.353Z,17.90
2023-01-28T00:08:17.325Z,18.30
2023-01-28T00:09:17.299Z,18.00
2023-01-28T00:10:17.310Z,17.80
2023-01-28T00:11:17.279Z,17.10
2023-01-28T00:12:17.265Z,16.80
2023-01-28T00:13:17.243Z,17.90
2023-01-28T00:14:17.234Z,18.10
2023-01-28T00:15:17.226Z,18.20
2023-01-28T00:16:17.350Z,17.60
2023-01-28T00:17:17.211Z,17.60
2023-01-28T00:18:17.182Z,17.80
2023-01-28T00:19:17.208Z,17.70
2023-01-28T00:20:17.153Z,19.10
2023-01-28T00:21:17.147Z,18.70
2023-01-28T00:22:17.152Z,17.50
2023-01-28T00:23:17.128Z,17.80
2023-01-28T00:24:17.188Z,17.70
2023-01-28T00:25:17.376Z,18.60
2023-01-28T00:26:17.096Z,18.00
2023-01-28T00:27:17.070Z,17.40
2023-01-28T00:28:17.057Z,18.00
2023-01-28T00:29:17.043Z,18.00
2023-01-28T00:30:17.029Z,17.70
2023-01-28T00:31:17.085Z,17.60
2023-01-28T00:32:17.023Z,17.60
2023-01-28T00:33:16.996Z,18.40
2023-01-28T00:34:17.006Z,17.80
2023-01-28T00:35:17.448Z,18.10
2023-01-28T00:36:16.960Z,18.40
2023-01-28T00:37:16.942Z,18.10
2023-01-28T00:38:16.941Z,17.40
2023-01-28T00:39:16.917Z,17.30
2023-01-28T00:40:16.907Z,18.40
2023-01-28T00:41:16.895Z,18.00
2023-01-28T00:42:16.891Z,17.80
2023-01-28T00:43:16.867Z,18.60
2023-01-28T00:44:16.855Z,18.30
2023-01-28T00:45:17.195Z,18.40
2023-01-28T00:46:16.840Z,18.20
2023-01-28T00:47:16.837Z,18.20
2023-01-28T00:48:16.848Z,18.30
2023-01-28T00:49:16.816Z,18.20
2023-01-28T00:50:16.770Z,18.00
2023-01-28T00:51:16.782Z,18.80
2023-01-28T00:52:16.749Z,17.70
2023-01-28T00:53:16.754Z,18.10
2023-01-28T00:54:16.719Z,18.20
2023-01-28T00:55:17.164Z,17.60
2023-01-28T00:56:16.697Z,18.00
2023-01-28T00:57:16.687Z,17.20
2023-01-28T00:58:16.680Z,18.10
2023-01-28T00:59:16.674Z,18.60
2023-01-28T01:00:16.656Z,18.20
2023-01-28T01:01:16.659Z,18.10
2023-01-28T01:02:16.671Z,17.90
2023-01-28T01:03:16.625Z,18.30
2023-01-28T01:04:16.588Z,17.80
2023-01-28T01:05:17.065Z,18.50
2023-01-28T01:06:16.609Z,18.50
2023-01-28T01:07:16.555Z,18.20
2023-01-28T01:08:16.548Z,17.60
2023-01-28T01:09:16.528Z,18.80
2023-01-28T01:10:16.534Z,18.20
2023-01-28T01:11:16.521Z,18.70
2023-01-28T01:12:16.484Z,18.30
2023-01-28T01:13:16.493Z,17.00
2023-01-28T01:14:16.460Z,19.30
2023-01-28T01:15:16.769Z,18.20
2023-01-28T01:16:16.496Z,18.30
2023-01-28T01:17:16.447Z,18.30
2023-01-28T01:18:16.420Z,18.80
2023-01-28T01:19:16.399Z,18.40
2023-01-28T01:20:16.391Z,18.60
2023-01-28T01:21:16.383Z,18.30
2023-01-28T01:22:16.365Z,18.20
2023-01-28T01:23:16.371Z,17.70
2023-01-28T01:24:16.460Z,17.80
2023-01-28T01:25:16.827Z,17.40
2023-01-28T01:26:16.311Z,17.00
2023-01-28T01:27:16.303Z,17.60
2023-01-28T01:28:16.285Z,17.70
2023-01-28T01:29:16.290Z,17.50
2023-01-28T01:30:16.259Z,17.20
2023-01-28T01:31:16.275Z,17.50
2023-01-28T01:32:16.243Z,17.60
2023-01-28T01:33:16.235Z,17.70
2023-01-28T01:34:16.213Z,17.50
2023-01-28T01:35:16.604Z,16.80
2023-01-28T01:36:16.180Z,17.60
2023-01-28T01:37:16.178Z,17.80
2023-01-28T01:38:16.160Z,18.00
2023-01-28T01:39:16.160Z,17.80
2023-01-28T01:40:16.130Z,18.00
2023-01-28T01:41:16.145Z,17.70
2023-01-28T01:42:16.109Z,18.00
2023-01-28T01:43:16.101Z,19.00
2023-01-28T01:44:16.091Z,18.00
2023-01-28T01:45:16.426Z,18.80
2023-01-28T01:46:16.112Z,17.90
2023-01-28T01:47:16.047Z,18.30
2023-01-28T01:48:16.062Z,18.80
2023-01-28T01:49:16.031Z,17.90
2023-01-28T01:50:16.005Z,18.90
2023-01-28T01:51:16.015Z,17.70
2023-01-28T01:52:15.978Z,18.60
2023-01-28T01:53:15.977Z,17.70
2023-01-28T01:54:15.990Z,18.00
2023-01-28T01:55:16.218Z,17.50
2023-01-28T01:56:15.935Z,18.10
2023-01-28T01:57:15.947Z,17.40
2023-01-28T01:58:15.918Z,18.30
2023-01-28T01:59:15.929Z,18.30
2023-01-28T02:00:15.911Z,18.50
2023-01-28T02:01:15.866Z,18.80
2023-01-28T02:02:15.935Z,18.20
2023-01-28T02:03:15.943Z,18.80
2023-01-28T02:04:15.841Z,18.50
2023-01-28T02:05:16.383Z,17.90
2023-01-28T02:06:15.807Z,18.80
2023-01-28T02:07:15.864Z,18.00
2023-01-28T02:08:15.775Z,17.70
2023-01-28T02:09:15.776Z,17.80
2023-01-28T02:10:15.769Z,19.20
2023-01-28T02:11:15.759Z,18.40
2023-01-28T02:12:15.758Z,18.20
2023-01-28T02:13:15.711Z,18.20
2023-01-28T02:14:29.445Z,18.60
2023-01-28T02:15:16.086Z,19.00
2023-01-28T02:16:15.682Z,18.10
2023-01-28T02:17:15.676Z,17.70
2023-01-28T02:18:15.673Z,19.10
2023-01-28T02:19:15.648Z,18.00
2023-01-28T02:20:15.648Z,18.50
2023-01-28T02:21:15.616Z,18.70
2023-01-28T02:22:15.619Z,17.30
2023-01-28T02:23:15.584Z,18.60
2023-01-28T02:24:15.786Z,18.70
2023-01-28T02:25:16.067Z,18.50
2023-01-28T02:26:15.573Z,17.90
2023-01-28T02:27:15.535Z,18.60
2023-01-28T02:28:15.521Z,18.30
2023-01-28T02:29:15.581Z,18.80
2023-01-28T02:30:15.505Z,18.70
2023-01-28T02:31:15.728Z,18.40
2023-01-28T02:32:15.497Z,18.10
2023-01-28T02:33:15.473Z,18.60
2023-01-28T02:34:15.449Z,19.20
2023-01-28T02:35:15.856Z,18.80
2023-01-28T02:36:15.416Z,18.40
2023-01-28T02:37:15.436Z,18.10
2023-01-28T02:38:15.414Z,18.70
2023-01-28T02:39:15.405Z,18.40
2023-01-28T02:40:15.391Z,19.20
2023-01-28T02:41:15.358Z,17.60
2023-01-28T02:42:15.345Z,17.70
2023-01-28T02:43:15.332Z,17.70
2023-01-28T02:44:15.324Z,18.30
2023-01-28T02:45:15.729Z,17.40
2023-01-28T02:46:15.347Z,17.40
2023-01-28T02:47:15.279Z,17.40
2023-01-28T02:48:15.265Z,18.30
2023-01-28T02:49:15.259Z,17.90
2023-01-28T02:50:15.242Z,18.00
2023-01-28T02:51:15.249Z,17.90
2023-01-28T02:52:15.214Z,17.90
2023-01-28T02:53:15.207Z,18.10
2023-01-28T02:54:15.212Z,17.60
2023-01-28T02:55:15.572Z,18.30
2023-01-28T02:56:15.172Z,18.20
2023-01-28T02:57:15.163Z,18.20
2023-01-28T02:58:15.143Z,18.10
2023-01-28T02:59:15.130Z,17.30
2023-01-28T03:00:15.137Z,18.30
2023-01-28T03:01:15.121Z,18.20
2023-01-28T03:02:15.161Z,17.20
2023-01-28T03:03:15.089Z,18.30
2023-01-28T03:04:15.072Z,18.10
2023-01-28T03:05:15.384Z,17.20
2023-01-28T03:06:15.030Z,18.00
2023-01-28T03:07:15.045Z,17.10
2023-01-28T03:08:15.011Z,17.90
2023-01-28T03:09:15.005Z,16.60
2023-01-28T03:10:16.112Z,17.40
2023-01-28T03:11:14.971Z,17.60
2023-01-28T03:12:14.971Z,17.30
2023-01-28T03:13:14.981Z,16.90
2023-01-28T03:14:14.935Z,16.40
2023-01-28T03:15:15.323Z,16.70
2023-01-28T03:16:14.953Z,17.40
2023-01-28T03:17:14.921Z,17.40
2023-01-28T03:18:14.923Z,17.30
2023-01-28T03:19:14.914Z,16.80
2023-01-28T03:20:14.857Z,16.90
2023-01-28T03:21:14.840Z,17.20
2023-01-28T03:22:14.832Z,16.90
2023-01-28T03:23:14.850Z,17.10
2023-01-28T03:24:14.925Z,17.80
2023-01-28T03:25:15.179Z,17.10
2023-01-28T03:26:14.797Z,16.60
2023-01-28T03:27:14.766Z,17.10
2023-01-28T03:28:14.777Z,17.20
2023-01-28T03:29:14.797Z,17.20
2023-01-28T03:30:14.748Z,17.20
2023-01-28T03:31:14.723Z,17.20
2023-01-28T03:32:14.776Z,16.70
2023-01-28T03:33:20.742Z,17.10
2023-01-28T03:34:14.705Z,18.20
2023-01-28T03:35:14.944Z,17.60
2023-01-28T03:36:14.693Z,17.00
2023-01-28T03:37:14.656Z,16.90
2023-01-28T03:38:14.660Z,17.20
2023-01-28T03:39:14.712Z,17.40
2023-01-28T03:40:14.604Z,16.50
2023-01-28T03:41:14.591Z,16.60
2023-01-28T03:42:14.578Z,16.80
2023-01-28T03:43:14.577Z,17.50
2023-01-28T03:44:14.560Z,16.60
2023-01-28T03:45:14.867Z,17.40
2023-01-28T03:46:14.630Z,17.10
2023-01-28T03:47:14.521Z,17.20
2023-01-28T03:48:14.506Z,16.40
2023-01-28T03:49:14.517Z,16.80
2023-01-28T03:50:14.487Z,16.70
2023-01-28T03:51:14.468Z,17.10
2023-01-28T03:52:14.458Z,16.90
2023-01-28T03:53:16.499Z,17.60
2023-01-28T03:54:14.439Z,16.90
2023-01-28T03:55:15.083Z,16.90
2023-01-28T03:56:14.396Z,16.40
2023-01-28T03:57:14.412Z,16.50
2023-01-28T03:58:14.382Z,16.60
2023-01-28T03:59:14.375Z,16.40
2023-01-28T04:00:14.397Z,15.60
2023-01-28T04:01:14.343Z,16.80
2023-01-28T04:02:14.319Z,16.90
2023-01-28T04:03:14.382Z,16.40
2023-01-28T04:04:14.490Z,16.50
2023-01-28T04:05:14.571Z,16.20
2023-01-28T04:06:14.282Z,16.30
2023-01-28T04:07:14.277Z,17.00
2023-01-28T04:08:14.263Z,16.90
2023-01-28T04:09:14.236Z,16.90
2023-01-28T04:10:14.261Z,17.10
2023-01-28T04:11:14.207Z,16.80
2023-01-28T04:12:14.197Z,17.10
2023-01-28T04:13:14.199Z,17.70
2023-01-28T04:14:14.201Z,17.00
2023-01-28T04:15:14.549Z,16.70
2023-01-28T04:16:14.192Z,17.40
2023-01-28T04:17:14.140Z,17.70
2023-01-28T04:18:14.132Z,17.60
2023-01-28T04:19:14.122Z,17.30
2023-01-28T04:20:14.127Z,17.40
2023-01-28T04:21:14.081Z,17.40
2023-01-28T04:22:14.080Z,16.90
2023-01-28T04:23:14.074Z,17.50
2023-01-28T04:24:14.116Z,17.70
2023-01-28T04:25:14.429Z,17.10
2023-01-28T04:26:14.024Z,17.30
2023-01-28T04:27:14.021Z,17.80
2023-01-28T04:28:13.995Z,17.40
2023-01-28T04:29:13.980Z,17.90
2023-01-28T04:30:13.976Z,17.90
2023-01-28T04:31:13.972Z,18.30
2023-01-28T04:32:13.957Z,17.80
2023-01-28T04:33:13.931Z,17.40
2023-01-28T04:34:13.932Z,18.50
2023-01-28T04:35:14.249Z,18.70
2023-01-28T04:36:13.894Z,17.30
2023-01-28T04:37:13.922Z,18.60
2023-01-28T04:38:13.885Z,17.70
2023-01-28T04:39:13.879Z,18.00
2023-01-28T04:40:13.856Z,18.60
2023-01-28T04:41:13.834Z,18.00
2023-01-28T04:42:13.822Z,17.60
2023-01-28T04:43:13.808Z,18.10
2023-01-28T04:44:13.865Z,18.30
2023-01-28T04:45:14.023Z,18.10
2023-01-28T04:46:13.822Z,18.60
2023-01-28T04:47:13.760Z,18.30
2023-01-28T04:48:13.760Z,18.60
2023-01-28T04:49:13.733Z,18.00
2023-01-28T04:50:13.712Z,18.40
2023-01-28T04:51:13.747Z,17.70
2023-01-28T04:52:13.691Z,18.10
2023-01-28T04:53:13.675Z,17.30
2023-01-28T04:54:13.670Z,17.60
2023-01-28T04:55:14.069Z,18.20
2023-01-28T04:56:13.641Z,18.10
2023-01-28T04:57:13.637Z,17.40
2023-01-28T04:58:13.613Z,17.80
2023-01-28T04:59:13.608Z,17.90
2023-01-28T05:00:13.608Z,17.90
2023-01-28T05:01:13.650Z,18.60
2023-01-28T05:02:13.634Z,18.80
2023-01-28T05:03:13.565Z,19.10
2023-01-28T05:04:13.534Z,18.10
2023-01-28T05:05:13.920Z,18.40
2023-01-28T05:06:13.519Z,17.40
2023-01-28T05:07:13.537Z,18.00
2023-01-28T05:08:13.481Z,17.20
2023-01-28T05:09:13.467Z,18.10
2023-01-28T05:10:13.456Z,18.10
2023-01-28T05:11:13.455Z,17.60
2023-01-28T05:12:13.440Z,18.60
2023-01-28T05:13:13.421Z,17.60
2023-01-28T05:14:13.418Z,17.00
2023-01-28T05:15:13.850Z,17.90
2023-01-28T05:16:13.384Z,17.90
2023-01-28T05:17:13.487Z,18.00
2023-01-28T05:18:13.358Z,18.30
2023-01-28T05:19:13.371Z,18.30
2023-01-28T05:20:13.338Z,18.20
2023-01-28T05:21:13.329Z,17.80
2023-01-28T05:22:13.309Z,17.00
2023-01-28T05:23:13.290Z,18.10
2023-01-28T05:24:13.308Z,17.90
2023-01-28T05:25:13.515Z,17.80
2023-01-28T05:26:13.252Z,16.90
2023-01-28T05:27:13.252Z,17.90
2023-01-28T05:28:13.239Z,17.30
2023-01-28T05:29:13.217Z,16.80
2023-01-28T05:30:13.414Z,17.10
2023-01-28T05:31:13.189Z,17.50
2023-01-28T05:32:13.235Z,17.80
2023-01-28T05:33:13.184Z,18.20
2023-01-28T05:34:13.153Z,17.90
2023-01-28T05:35:13.757Z,17.20
2023-01-28T05:36:13.156Z,18.00
2023-01-28T05:37:13.108Z,17.60
2023-01-28T05:38:15.173Z,18.20
2023-01-28T05:39:13.079Z,17.80
2023-01-28T05:40:13.494Z,18.40
2023-01-28T05:41:13.062Z,18.00
2023-01-28T05:42:13.051Z,18.70
2023-01-28T05:43:13.065Z,17.80
2023-01-28T05:44:13.040Z,18.90
2023-01-28T05:45:13.290Z,18.50
2023-01-28T05:46:13.014Z,17.30
2023-01-28T05:47:12.984Z,17.10
2023-01-28T05:48:12.981Z,17.70
2023-01-28T05:49:12.957Z,17.70
2023-01-28T05:50:13.361Z,17.00
2023-01-28T05:51:12.940Z,18.50
2023-01-28T05:52:12.916Z,17.40
2023-01-28T05:53:12.968Z,17.20
2023-01-28T05:54:12.929Z,17.30
2023-01-28T05:55:12.879Z,17.90
2023-01-28T05:56:12.871Z,18.10
2023-01-28T05:57:12.874Z,17.90
2023-01-28T05:58:12.850Z,17.80
2023-01-28T05:59:12.823Z,17.90
2023-01-28T06:00:13.176Z,18.10
2023-01-28T06:01:12.804Z,17.70
2023-01-28T06:02:12.846Z,17.40
2023-01-28T06:03:12.802Z,18.70
2023-01-28T06:04:12.765Z,18.00
2023-01-28T06:05:12.806Z,18.60
2023-01-28T06:06:12.737Z,18.30
2023-01-28T06:07:12.740Z,18.30
2023-01-28T06:08:12.715Z,18.20
2023-01-28T06:09:12.712Z,18.60
2023-01-28T06:10:13.079Z,18.40
2023-01-28T06:11:12.689Z,18.10
2023-01-28T06:12:12.661Z,18.10
2023-01-28T06:13:12.658Z,18.50
2023-01-28T06:14:12.665Z,18.00
2023-01-28T06:15:12.637Z,18.00
2023-01-28T06:16:12.693Z,18.20
2023-01-28T06:17:12.592Z,17.80
2023-01-28T06:18:12.585Z,16.90
2023-01-28T06:19:12.602Z,16.80
2023-01-28T06:20:12.939Z,17.70
2023-01-28T06:21:12.558Z,16.80
2023-01-28T06:22:12.554Z,15.80
2023-01-28T06:23:12.565Z,16.30
2023-01-28T06:24:12.551Z,15.60
2023-01-28T06:25:12.565Z,14.80
2023-01-28T06:26:12.498Z,15.70
2023-01-28T06:27:12.464Z,15.10
2023-01-28T06:28:12.453Z,15.30
2023-01-28T06:29:12.461Z,14.50
2023-01-28T06:30:12.799Z,14.60
2023-01-28T06:31:12.462Z,15.40
2023-01-28T06:32:12.441Z,13.60
2023-01-28T06:33:12.400Z,13.40
2023-01-28T06:34:12.405Z,13.00
2023-01-28T06:35:12.360Z,13.10
2023-01-28T06:36:12.365Z,13.00
2023-01-28T06:37:12.339Z,12.90
2023-01-28T06:38:12.335Z,13.50
2023-01-28T06:39:12.339Z,12.90
2023-01-28T06:40:12.356Z,12.70
2023-01-28T06:41:12.298Z,12.70
2023-01-28T06:42:12.275Z,12.70
2023-01-28T06:43:12.262Z,13.00
2023-01-28T06:44:12.289Z,12.20
2023-01-28T06:45:12.247Z,13.30
2023-01-28T06:46:12.241Z,13.50
2023-01-28T06:47:12.223Z,13.20
2023-01-28T06:48:12.206Z,13.20
2023-01-28T06:49:12.186Z,13.80
2023-01-28T06:50:12.262Z,13.50
2023-01-28T06:51:12.167Z,14.30
2023-01-28T06:52:12.185Z,13.30
2023-01-28T06:53:12.150Z,13.80
2023-01-28T06:54:12.142Z,14.20
2023-01-28T06:55:12.129Z,14.20
2023-01-28T06:56:12.101Z,14.00
2023-01-28T06:57:12.085Z,14.00
2023-01-28T06:58:12.074Z,14.10
2023-01-28T06:59:12.113Z,15.90
2023-01-28T07:00:12.107Z,17.30
2023-01-28T07:01:12.045Z,16.50
2023-01-28T07:02:12.023Z,14.80
2023-01-28T07:03:12.053Z,15.30
2023-01-28T07:04:11.998Z,14.30
2023-01-28T07:05:12.009Z,14.90
2023-01-28T07:06:11.990Z,14.40
2023-01-28T07:07:11.976Z,14.70
2023-01-28T07:08:11.983Z,14.00
2023-01-28T07:09:11.947Z,14.50
2023-01-28T07:10:11.943Z,15.10
2023-01-28T07:11:11.942Z,14.50
2023-01-28T07:12:11.909Z,15.30
2023-01-28T07:13:11.909Z,15.00
2023-01-28T07:14:11.882Z,14.60
2023-01-28T07:15:11.902Z,14.20
2023-01-28T07:16:11.870Z,14.80
2023-01-28T07:17:11.882Z,14.60
2023-01-28T07:18:11.853Z,14.70
2023-01-28T07:19:11.838Z,14.90
2023-01-28T07:20:11.819Z,14.90
2023-01-28T07:21:11.826Z,14.70
2023-01-28T07:22:11.781Z,14.90
2023-01-28T07:23:11.794Z,14.80
2023-01-28T07:24:11.781Z,14.70
2023-01-28T07:25:11.730Z,14.50
2023-01-28T07:26:11.729Z,15.20
2023-01-28T07:27:11.712Z,15.10
2023-01-28T07:28:11.699Z,16.00
2023-01-28T07:29:11.683Z,15.20
2023-01-28T07:30:11.676Z,20.50
2023-01-28T07:31:11.873Z,26.00
2023-01-28T07:32:11.731Z,24.80
2023-01-28T07:33:11.640Z,20.80
2023-01-28T07:34:11.638Z,17.10
2023-01-28T07:35:11.606Z,15.80
2023-01-28T07:36:11.619Z,17.20
2023-01-28T07:37:11.584Z,16.80
2023-01-28T07:38:11.581Z,16.90
2023-01-28T07:39:11.557Z,16.50
2023-01-28T07:40:11.552Z,15.70
2023-01-28T07:41:11.539Z,15.70
2023-01-28T07:42:11.529Z,18.40
2023-01-28T07:43:11.511Z,18.90
2023-01-28T07:44:11.496Z,22.70
2023-01-28T07:45:11.483Z,19.60
2023-01-28T07:46:11.476Z,17.50
2023-01-28T07:47:11.493Z,17.60
2023-01-28T07:48:11.435Z,18.00
2023-01-28T07:49:11.425Z,17.80
2023-01-28T07:50:11.431Z,17.80
2023-01-28T07:51:11.397Z,18.00
2023-01-28T07:52:11.400Z,17.10
2023-01-28T07:53:11.371Z,17.30
2023-01-28T07:54:11.355Z,17.10
2023-01-28T07:55:11.351Z,17.10
2023-01-28T07:56:11.333Z,17.60
2023-01-28T07:57:11.339Z,16.70
2023-01-28T07:58:11.311Z,17.80
2023-01-28T07:59:11.288Z,17.30
2023-01-28T08:00:11.288Z,16.90
2023-01-28T08:01:11.303Z,17.10
2023-01-28T08:02:11.264Z,16.20
2023-01-28T08:03:11.245Z,16.60
2023-01-28T08:04:11.391Z,16.40
2023-01-28T08:05:11.423Z,17.10
2023-01-28T08:06:11.213Z,16.70
2023-01-28T08:07:11.199Z,17.30
2023-01-28T08:08:11.181Z,16.70
2023-01-28T08:09:11.174Z,15.60
2023-01-28T08:10:11.167Z,15.80
2023-01-28T08:11:11.137Z,15.50
2023-01-28T08:12:11.177Z,16.00
2023-01-28T08:13:11.124Z,17.00
2023-01-28T08:14:11.105Z,15.70
2023-01-28T08:15:11.088Z,15.80
2023-01-28T08:16:11.178Z,15.50
2023-01-28T08:17:11.074Z,15.10
2023-01-28T08:18:11.065Z,14.70
2023-01-28T08:19:11.056Z,14.50
2023-01-28T08:20:11.044Z,14.40
2023-01-28T08:21:11.012Z,14.30
2023-01-28T08:22:11.037Z,14.20
2023-01-28T08:23:11.004Z,13.90
2023-01-28T08:24:11.026Z,13.60
2023-01-28T08:25:10.961Z,13.50
2023-01-28T08:26:10.953Z,14.20
2023-01-28T08:27:10.936Z,13.00
2023-01-28T08:28:10.949Z,14.10
2023-01-28T08:29:10.909Z,14.20
2023-01-28T08:30:10.916Z,14.10
2023-01-28T08:31:11.026Z,14.10
2023-01-28T08:32:10.872Z,14.50
2023-01-28T08:33:10.857Z,14.50
2023-01-28T08:34:10.859Z,14.60
2023-01-28T08:35:10.830Z,14.40
2023-01-28T08:36:10.830Z,14.50
2023-01-28T08:37:10.822Z,14.20
2023-01-28T08:38:10.794Z,14.30
2023-01-28T08:39:10.794Z,14.10
2023-01-28T08:40:10.773Z,14.10
2023-01-28T08:41:10.759Z,13.40
2023-01-28T08:42:10.767Z,13.60
2023-01-28T08:43:10.746Z,13.90
2023-01-28T08:44:10.742Z,12.90
2023-01-28T08:45:10.750Z,13.60
2023-01-28T08:46:10.714Z,13.70
2023-01-28T08:47:10.678Z,13.50
2023-01-28T08:48:10.697Z,14.10
2023-01-28T08:49:10.664Z,14.60
2023-01-28T08:50:10.650Z,14.40
2023-01-28T08:51:10.639Z,13.70
2023-01-28T08:52:10.657Z,13.90
2023-01-28T08:53:10.624Z,13.70
2023-01-28T08:54:10.606Z,13.90
2023-01-28T08:55:10.606Z,14.70
2023-01-28T08:56:10.572Z,13.90
2023-01-28T08:57:10.561Z,14.70
2023-01-28T08:58:10.569Z,14.80
2023-01-28T08:59:10.530Z,14.40
2023-01-28T09:00:10.527Z,14.80
2023-01-28T09:01:10.515Z,14.50
2023-01-28T09:02:22.017Z,14.80
2023-01-28T09:03:10.501Z,15.40
2023-01-28T09:04:10.508Z,14.50
2023-01-28T09:05:10.459Z,15.20
2023-01-28T09:06:10.470Z,15.10
2023-01-28T09:07:10.424Z,15.10
2023-01-28T09:08:10.408Z,15.60
2023-01-28T09:09:10.392Z,15.40
2023-01-28T09:10:10.393Z,15.90
2023-01-28T09:11:10.372Z,14.70
2023-01-28T09:12:10.365Z,15.00
2023-01-28T09:13:10.349Z,15.10
2023-01-28T09:14:10.353Z,14.60
2023-01-28T09:15:10.352Z,15.20
2023-01-28T09:16:10.370Z,15.40
2023-01-28T09:17:10.316Z,14.90
2023-01-28T09:18:10.285Z,15.20
2023-01-28T09:19:10.314Z,14.70
2023-01-28T09:20:10.259Z,15.80
2023-01-28T09:21:10.261Z,15.00
2023-01-28T09:22:10.232Z,14.50
2023-01-28T09:23:10.225Z,14.10
2023-01-28T09:24:10.243Z,14.50
2023-01-28T09:25:10.208Z,15.00
2023-01-28T09:26:10.299Z,15.10
2023-01-28T09:27:10.185Z,15.30
2023-01-28T09:28:10.166Z,15.10
2023-01-28T09:29:10.145Z,15.50
2023-01-28T09:30:10.130Z,15.00
2023-01-28T09:31:10.228Z,15.20
2023-01-28T09:32:10.127Z,14.30
2023-01-28T09:33:10.091Z,14.90
2023-01-28T09:34:10.077Z,14.90
2023-01-28T09:35:10.108Z,13.80
2023-01-28T09:36:10.056Z,14.10
2023-01-28T09:37:10.043Z,15.00
2023-01-28T09:38:10.026Z,14.90
2023-01-28T09:39:10.043Z,14.40
2023-01-28T09:40:09.998Z,14.40
2023-01-28T09:41:09.996Z,14.50
2023-01-28T09:42:09.974Z,15.00
2023-01-28T09:43:09.963Z,14.10
2023-01-28T09:44:09.953Z,14.70
2023-01-28T09:45:09.960Z,15.00
2023-01-28T09:46:09.933Z,14.10
2023-01-28T09:47:09.925Z,14.50
2023-01-28T09:48:09.932Z,14.70
2023-01-28T09:49:09.893Z,14.50
2023-01-28T09:50:09.890Z,15.40
2023-01-28T09:51:09.876Z,15.10
2023-01-28T09:52:09.853Z,15.00
2023-01-28T09:53:09.842Z,14.80
2023-01-28T09:54:09.829Z,14.60
2023-01-28T09:55:09.823Z,15.10
2023-01-28T09:56:09.806Z,14.80
2023-01-28T09:57:09.795Z,15.90
2023-01-28T09:58:09.814Z,14.30
2023-01-28T09:59:09.760Z,14.00
2023-01-28T10:00:09.760Z,13.90
2023-01-28T10:01:09.750Z,14.40
2023-01-28T10:02:09.716Z,13.20
2023-01-28T10:03:09.721Z,13.80
2023-01-28T10:04:09.770Z,13.90
2023-01-28T10:05:09.681Z,13.60
2023-01-28T10:06:09.685Z,13.40
2023-01-28T10:07:09.658Z,13.80
2023-01-28T10:08:09.641Z,13.40
2023-01-28T10:09:09.659Z,13.70
2023-01-28T10:10:09.624Z,12.60
2023-01-28T10:11:09.615Z,12.70
2023-01-28T10:12:09.589Z,13.20
2023-01-28T10:13:09.605Z,13.70
2023-01-28T10:14:09.566Z,13.40
2023-01-28T10:15:09.566Z,13.30
2023-01-28T10:16:09.561Z,13.50
2023-01-28T10:17:09.566Z,14.60
2023-01-28T10:18:17.219Z,13.70
2023-01-28T10:19:09.524Z,14.00
2023-01-28T10:20:09.520Z,14.20
2023-01-28T10:21:09.479Z,14.80
2023-01-28T10:22:09.477Z,14.10
2023-01-28T10:23:09.453Z,14.30
2023-01-28T10:24:09.514Z,13.70
2023-01-28T10:25:09.441Z,14.80
2023-01-28T10:26:09.413Z,15.30
2023-01-28T10:27:09.411Z,15.50
2023-01-28T10:28:09.432Z,15.50
2023-01-28T10:29:09.389Z,15.50
2023-01-28T10:30:09.356Z,14.10
2023-01-28T10:31:09.446Z,13.60
2023-01-28T10:32:09.346Z,13.60
2023-01-28T10:33:09.330Z,14.10
2023-01-28T10:34:09.306Z,14.00
2023-01-28T10:35:09.319Z,14.50
2023-01-28T10:36:09.297Z,14.10
2023-01-28T10:37:09.293Z,14.20
2023-01-28T10:38:09.270Z,14.30
2023-01-28T10:39:09.407Z,13.70
2023-01-28T10:40:09.231Z,14.00
2023-01-28T10:41:09.239Z,14.10
2023-01-28T10:42:09.227Z,13.90
2023-01-28T10:43:09.202Z,13.70
2023-01-28T10:44:09.204Z,14.00
2023-01-28T10:45:09.186Z,13.40
2023-01-28T10:46:09.235Z,13.10
2023-01-28T10:47:09.159Z,13.30
2023-01-28T10:48:09.128Z,13.50
2023-01-28T10:49:09.130Z,13.80
2023-01-28T10:50:09.107Z,13.90
2023-01-28T10:51:09.106Z,14.00
2023-01-28T10:52:09.098Z,13.60
2023-01-28T10:53:09.081Z,14.80
2023-01-28T10:54:09.055Z,13.20
2023-01-28T10:55:09.043Z,13.00
2023-01-28T10:56:09.064Z,13.80
2023-01-28T10:57:09.030Z,13.60
2023-01-28T10:58:09.019Z,13.70
2023-01-28T10:59:08.993Z,14.20
2023-01-28T11:00:08.977Z,13.60
2023-01-28T11:01:09.026Z,13.50
2023-01-28T11:02:08.988Z,14.80
2023-01-28T11:03:08.957Z,14.30
2023-01-28T11:04:08.943Z,13.90
2023-01-28T11:05:08.930Z,12.80
2023-01-28T11:06:08.903Z,13.70
2023-01-28T11:07:08.899Z,13.20
2023-01-28T11:08:08.893Z,13.80
2023-01-28T11:09:08.869Z,13.60
2023-01-28T11:10:08.879Z,14.40
2023-01-28T11:11:08.882Z,14.00
2023-01-28T11:12:08.830Z,13.80
2023-01-28T11:13:08.829Z,13.80
2023-01-28T11:14:08.812Z,13.90
2023-01-28T11:15:08.800Z,13.50
2023-01-28T11:16:08.779Z,13.60
2023-01-28T11:17:09.084Z,14.20
2023-01-28T11:18:11.299Z,14.00
2023-01-28T11:19:08.746Z,13.20
2023-01-28T11:20:08.743Z,12.70
2023-01-28T11:21:08.782Z,12.50
2023-01-28T11:22:08.702Z,13.30
2023-01-28T11:23:08.706Z,12.90
2023-01-28T11:24:08.722Z,12.80
2023-01-28T11:25:08.668Z,12.90
2023-01-28T11:26:08.705Z,13.20
2023-01-28T11:27:08.653Z,12.40
2023-01-28T11:28:08.637Z,13.30
2023-01-28T11:29:08.637Z,13.00
2023-01-28T11:30:08.617Z,13.40
2023-01-28T11:31:08.642Z,13.10
2023-01-28T11:32:08.590Z,13.40
2023-01-28T11:33:08.580Z,13.80
2023-01-28T11:34:08.565Z,13.50
2023-01-28T11:35:08.547Z,13.30
2023-01-28T11:36:08.534Z,12.70
2023-01-28T11:37:08.622Z,13.60
2023-01-28T11:38:08.502Z,12.50
2023-01-28T11:39:08.496Z,13.40
2023-01-28T11:40:08.490Z,12.30
2023-01-28T11:41:08.465Z,12.80
2023-01-28T11:42:08.450Z,12.10
2023-01-28T11:43:08.443Z,12.00
2023-01-28T11:44:08.439Z,12.40
2023-01-28T11:45:08.410Z,11.60
2023-01-28T11:46:08.503Z,12.50
2023-01-28T11:47:08.402Z,11.90
2023-01-28T11:48:08.389Z,12.40
2023-01-28T11:49:08.380Z,12.10
2023-01-28T11:50:08.365Z,12.40
2023-01-28T11:51:08.335Z,12.20
2023-01-28T11:52:08.322Z,12.10
2023-01-28T11:53:08.317Z,11.80
2023-01-28T11:54:08.348Z,11.60
2023-01-28T11:55:08.368Z,11.90
2023-01-28T11:56:08.276Z,11.60
2023-01-28T11:57:08.290Z,11.60
2023-01-28T11:58:08.259Z,11.40
2023-01-28T11:59:08.244Z,11.40
2023-01-28T12:00:08.238Z,10.70
2023-01-28T12:01:08.214Z,11.20
2023-01-28T12:02:08.196Z,11.60
2023-01-28T12:03:08.186Z,11.20
2023-01-28T12:04:08.178Z,11.20
2023-01-28T12:05:08.181Z,11.30
2023-01-28T12:06:08.158Z,10.90
2023-01-28T12:07:08.138Z,11.30
2023-01-28T12:08:08.118Z,11.50
2023-01-28T12:09:08.127Z,11.20
2023-01-28T12:10:08.107Z,11.50
2023-01-28T12:11:08.092Z,11.10
2023-01-28T12:12:08.111Z,10.70
2023-01-28T12:13:08.058Z,10.60
2023-01-28T12:14:08.045Z,10.80
2023-01-28T12:15:08.044Z,11.00
2023-01-28T12:16:08.085Z,11.20
2023-01-28T12:17:08.011Z,11.00
2023-01-28T12:18:08.019Z,10.40
2023-01-28T12:19:08.002Z,10.10
2023-01-28T12:20:08.030Z,10.90
2023-01-28T12:21:07.963Z,11.00
2023-01-28T12:22:07.973Z,11.10
2023-01-28T12:23:08.093Z,11.20
2023-01-28T12:24:10.302Z,11.40
2023-01-28T12:25:07.926Z,11.10
2023-01-28T12:26:07.905Z,11.70
2023-01-28T12:27:07.913Z,12.30
2023-01-28T12:28:07.883Z,11.10
2023-01-28T12:29:07.869Z,11.30
2023-01-28T12:30:07.890Z,10.40
2023-01-28T12:31:07.923Z,10.60
2023-01-28T12:32:07.890Z,11.10
2023-01-28T12:33:07.843Z,11.20
2023-01-28T12:34:07.799Z,11.50
2023-01-28T12:35:07.792Z,10.90
2023-01-28T12:36:07.789Z,10.60
2023-01-28T12:37:07.763Z,10.60
2023-01-28T12:38:07.752Z,10.70
2023-01-28T12:39:07.742Z,10.70
2023-01-28T12:40:07.722Z,10.50
2023-01-28T12:41:07.729Z,9.80
2023-01-28T12:42:07.694Z,10.80
2023-01-28T12:43:07.710Z,11.40
2023-01-28T12:44:07.687Z,10.80
2023-01-28T12:45:07.684Z,10.60
2023-01-28T12:46:07.675Z,9.90
2023-01-28T12:47:07.634Z,10.80
2023-01-28T12:48:07.635Z,10.20
2023-01-28T12:49:07.619Z,10.20
2023-01-28T12:50:07.592Z,10.00
2023-01-28T12:51:07.594Z,9.40
2023-01-28T12:52:07.574Z,10.50